Time;durP1;ratioP1;P1;durP2;ratioP2;P2;SDS_P1;SDS_P2;PMS_P1;PMS_P2;Temp;Humidity;BMP_temperature;BMP_pressure;BME280_temperature;BME280_humidity;BME280_pressure;Samples;Min_cycle;Max_cycle;Signal;HPM_P1;HPM_P2
2022/07/31 00:01:56;;;;;;;3.27;2.47;;;;;;;17.03;100.00;96627.72;5051272;27;105116;-68
2022/07/31 00:04:23;;;;;;;2.60;2.40;;;;;;;17.20;100.00;96633.44;5051723;27;102659;-68
2022/07/31 00:06:52;;;;;;;2.40;2.20;;;;;;;17.14;100.00;96634.59;5052446;27;101721;-68
2022/07/31 00:09:19;;;;;;;2.57;2.17;;;;;;;16.96;100.00;96625.38;5051419;27;105291;-68
2022/07/31 00:11:46;;;;;;;2.57;2.47;;;;;;;17.24;100.00;96637.19;5050511;27;105998;-68
2022/07/31 00:14:13;;;;;;;2.33;2.13;;;;;;;17.12;100.00;96632.19;5052367;27;101850;-68
2022/07/31 00:16:40;;;;;;;2.47;2.30;;;;;;;16.91;100.00;96624.63;5051985;27;102362;-68
2022/07/31 00:19:07;;;;;;;2.47;2.27;;;;;;;16.98;100.00;96628.59;5053463;27;105375;-68
2022/07/31 00:21:34;;;;;;;2.10;2.00;;;;;;;16.84;100.00;96619.59;5051014;27;104186;-68
2022/07/31 00:24:03;;;;;;;4.27;2.37;;;;;;;16.93;100.00;96630.50;5051743;27;103016;-68
2022/07/31 00:26:30;;;;;;;2.60;2.40;;;;;;;17.00;100.00;96634.47;5052311;27;101809;-68
2022/07/31 00:28:57;;;;;;;2.30;2.20;;;;;;;16.89;100.00;96632.19;5050676;27;105292;-68
2022/07/31 00:31:24;;;;;;;2.70;2.50;;;;;;;16.53;100.00;96631.72;5050001;27;105495;-68
2022/07/31 00:33:52;;;;;;;2.80;2.50;;;;;;;16.94;100.00;96624.88;5051958;27;101986;-68
2022/07/31 00:36:20;;;;;;;2.70;2.50;;;;;;;16.60;100.00;96626.81;5050664;27;104424;-68
2022/07/31 00:38:47;;;;;;;2.60;2.40;;;;;;;16.93;100.00;96627.81;5049741;27;105401;-69
2022/07/31 00:41:16;;;;;;;3.13;2.90;;;;;;;17.07;100.00;96624.19;5054113;27;101987;-68
2022/07/31 00:43:43;;;;;;;3.43;2.70;;;;;;;17.02;100.00;96620.75;5049662;27;105427;-68
2022/07/31 00:46:11;;;;;;;2.47;2.27;;;;;;;17.00;100.00;96623.72;5050341;27;102076;-68
2022/07/31 00:48:38;;;;;;;2.97;2.63;;;;;;;17.02;100.00;96618.06;5050349;27;105242;-68
2022/07/31 00:51:05;;;;;;;2.77;2.57;;;;;;;17.10;100.00;96628.19;5049763;27;105429;-68
2022/07/31 00:53:32;;;;;;;3.03;2.40;;;;;;;17.11;100.00;96621.75;5050404;27;101789;-68
2022/07/31 00:55:59;;;;;;;2.40;2.30;;;;;;;16.72;100.00;96631.78;5051425;27;102481;-68
2022/07/31 00:58:28;;;;;;;3.00;2.20;;;;;;;16.96;100.00;96627.28;5049696;27;105625;-68
2022/07/31 01:00:55;;;;;;;2.37;2.17;;;;;;;16.85;100.00;96626.56;5051649;27;101837;-68
2022/07/31 01:03:23;;;;;;;2.70;2.47;;;;;;;16.69;100.00;96635.06;5053023;27;105286;-68
2022/07/31 01:05:50;;;;;;;3.23;2.40;;;;;;;16.69;100.00;96627.81;5049968;27;102250;-68
2022/07/31 01:08:17;;;;;;;2.70;2.50;;;;;;;16.98;100.00;96630.47;5050050;27;105304;-68
2022/07/31 01:10:52;;;;;;;2.90;2.60;;;;;;;16.79;100.00;96624.22;5049800;27;105313;-68
2022/07/31 01:13:31;;;;;;;3.53;2.60;;;;;;;16.59;100.00;96627.09;5051317;27;102148;-68
2022/07/31 01:16:01;;;;;;;3.80;2.80;;;;;;;16.73;100.00;96618.09;5050091;27;103899;-68
2022/07/31 01:18:33;;;;;;;3.13;2.83;;;;;;;16.76;100.00;96619.41;5049286;27;105877;-68
2022/07/31 01:21:04;;;;;;;3.57;2.77;;;;;;;16.79;100.00;96626.91;5050153;27;101990;-68
2022/07/31 01:23:45;;;;;;;3.63;2.70;;;;;;;16.75;100.00;96625.88;5049921;27;105162;-68
2022/07/31 01:26:53;;;;;;;2.63;2.43;;;;;;;16.68;100.00;96611.97;5036972;27;103724;-68
2022/07/31 01:29:27;;;;;;;5.33;2.93;;;;;;;16.71;100.00;96620.25;5049810;27;104929;-68
2022/07/31 01:32:01;;;;;;;2.90;2.57;;;;;;;16.68;100.00;96622.72;5049458;27;105529;-68
2022/07/31 01:34:35;;;;;;;2.90;2.50;;;;;;;16.79;100.00;96616.94;5049902;27;101871;-68
2022/07/31 01:37:12;;;;;;;2.63;2.43;;;;;;;16.76;100.00;96619.41;5049705;27;105180;-68
2022/07/31 01:39:46;;;;;;;2.30;2.20;;;;;;;16.86;100.00;96612.06;5048812;27;105363;-68
2022/07/31 01:42:17;;;;;;;2.90;2.60;;;;;;;16.73;100.00;96620.78;5049543;27;101890;-68
2022/07/31 01:44:51;;;;;;;2.90;2.70;;;;;;;16.84;100.00;96613.44;5049662;27;105193;-68
2022/07/31 01:47:21;;;;;;;2.77;2.50;;;;;;;16.75;100.00;96623.19;5048706;27;105607;-68
2022/07/31 01:49:51;;;;;;;3.87;2.43;;;;;;;16.68;100.00;96611.97;5053056;27;101856;-68
2022/07/31 01:52:23;;;;;;;2.33;2.23;;;;;;;16.66;100.00;96609.56;5048991;27;105189;-68
2022/07/31 01:54:51;;;;;;;3.50;2.70;;;;;;;16.26;100.00;96623.31;5049441;27;101880;-68
2022/07/31 01:57:22;;;;;;;2.50;2.30;;;;;;;16.30;100.00;96624.34;5049481;27;105358;-68
2022/07/31 01:59:55;;;;;;;3.27;2.90;;;;;;;16.55;100.00;96626.03;5048589;27;105429;-68
2022/07/31 02:02:44;;;;;;;3.67;2.70;;;;;;;16.26;100.00;96622.50;5049442;27;101927;-68
2022/07/31 02:05:13;;;;;;;3.13;2.47;;;;;;;16.51;100.00;96620.44;5049236;27;105352;-68
2022/07/31 02:07:42;;;;;;;3.90;2.63;;;;;;;16.53;100.00;96629.03;5048423;27;106068;-68
2022/07/31 02:10:13;;;;;;;2.50;2.40;;;;;;;16.68;100.00;96611.97;5052712;27;101924;-68
2022/07/31 02:12:41;;;;;;;3.73;2.47;;;;;;;16.76;100.00;96616.72;5048764;27;105945;-68
2022/07/31 02:15:13;;;;;;;3.50;2.70;;;;;;;16.75;100.00;96607.88;5049008;27;102473;-68
2022/07/31 02:17:46;;;;;;;2.57;2.37;;;;;;;16.74;100.00;96605.47;5033076;27;104595;-68
2022/07/31 02:20:24;;;;;;;3.93;2.47;;;;;;;16.92;100.00;96618.16;5046772;27;101741;-68
2022/07/31 02:22:55;;;;;;;2.70;2.50;;;;;;;16.77;100.00;96613.75;5049057;27;101949;-68
2022/07/31 02:25:23;;;;;;;3.03;2.60;;;;;;;16.95;100.00;96621.09;5048961;27;105858;-68
2022/07/31 02:27:51;;;;;;;3.20;2.50;;;;;;;16.88;100.00;96614.44;5048473;27;105019;-68
2022/07/31 02:30:35;;;;;;;2.57;2.37;;;;;;;16.88;100.00;96609.06;5048805;27;101833;-68
2022/07/31 02:33:05;;;;;;;2.97;2.50;;;;;;;16.84;100.00;96608.84;5051876;27;105086;-68
2022/07/31 02:35:33;;;;;;;2.50;2.30;;;;;;;16.67;100.00;96608.47;5048948;27;101953;-68
2022/07/31 02:38:02;;;;;;;2.30;2.10;;;;;;;16.61;100.00;96598.88;5048921;27;105533;-68
2022/07/31 02:40:29;;;;;;;3.87;2.23;;;;;;;16.67;100.00;96602.31;5048313;27;104104;-68
2022/07/31 02:42:57;;;;;;;2.77;2.57;;;;;;;16.69;100.00;96600.16;5052377;27;102010;-68
2022/07/31 02:45:26;;;;;;;2.90;2.70;;;;;;;16.78;100.00;96599.25;5052119;27;104994;-68
2022/07/31 02:47:53;;;;;;;3.40;2.70;;;;;;;16.73;100.00;96599.28;5051973;27;105461;-68
2022/07/31 02:50:21;;;;;;;2.97;2.50;;;;;;;16.68;100.00;96596.66;5052452;27;101953;-68
2022/07/31 02:52:51;;;;;;;4.20;2.87;;;;;;;16.66;100.00;96590.78;5052438;27;104737;-68
2022/07/31 02:55:18;;;;;;;2.40;2.27;;;;;;;16.66;100.00;96598.00;5055009;27;105487;-68
2022/07/31 02:57:46;;;;;;;2.80;2.60;;;;;;;16.74;100.00;96590.13;5035486;27;104833;-68
2022/07/31 03:00:22;;;;;;;2.60;2.40;;;;;;;16.75;100.00;96588.25;5051112;27;105242;-68
2022/07/31 03:02:55;;;;;;;2.80;2.60;;;;;;;16.79;100.00;96589.31;5052242;27;101859;-68
2022/07/31 03:05:24;;;;;;;3.20;2.90;;;;;;;16.54;100.00;96587.66;5052210;27;103777;-68
2022/07/31 03:07:51;;;;;;;2.93;2.43;;;;;;;16.58;100.00;96594.06;5051303;27;105121;-68
2022/07/31 03:10:18;;;;;;;4.23;2.80;;;;;;;16.67;100.00;96592.38;5052088;27;102051;-68
2022/07/31 03:13:02;;;;;;;3.50;2.90;;;;;;;16.65;100.00;96594.53;5051939;27;105023;-68
2022/07/31 03:15:31;;;;;;;4.10;2.50;;;;;;;16.54;100.00;96595.72;5051157;27;105151;-68
2022/07/31 03:18:01;;;;;;;2.40;2.20;;;;;;;16.72;100.00;96597.69;5055343;27;102383;-68
2022/07/31 03:20:35;;;;;;;2.60;2.40;;;;;;;16.82;100.00;96594.09;5051348;27;104088;-68
2022/07/31 03:23:02;;;;;;;3.00;2.80;;;;;;;16.75;100.00;96597.13;5052006;27;101998;-68
2022/07/31 03:25:32;;;;;;;2.70;2.50;;;;;;;16.66;100.00;96592.63;5051749;27;104064;-68
2022/07/31 03:28:00;;;;;;;2.20;2.10;;;;;;;16.79;100.00;96600.84;5034057;27;105156;-68
2022/07/31 03:30:27;;;;;;;2.87;2.30;;;;;;;16.78;100.00;96595.78;5051928;27;101919;-68
2022/07/31 03:33:01;;;;;;;2.90;2.70;;;;;;;16.71;100.00;96604.16;5051868;27;105081;-68
2022/07/31 03:35:30;;;;;;;3.13;2.20;;;;;;;16.73;100.00;96598.50;5050838;27;105313;-68
2022/07/31 03:37:57;;;;;;;3.00;2.70;;;;;;;16.61;100.00;96598.06;5051611;27;101837;-68
2022/07/31 03:40:25;;;;;;;4.07;3.03;;;;;;;16.52;100.00;96605.16;5053879;27;103730;-68
2022/07/31 03:42:55;;;;;;;4.77;2.73;;;;;;;16.17;100.00;96600.81;5051333;27;101885;-68
2022/07/31 03:45:23;;;;;;;3.67;2.70;;;;;;;16.28;100.00;96604.22;5051316;27;105022;-68
2022/07/31 03:47:51;;;;;;;2.37;2.17;;;;;;;16.46;100.00;96600.91;5033750;27;105517;-68
2022/07/31 03:50:19;;;;;;;2.53;2.30;;;;;;;16.44;100.00;96603.06;5051539;27;101845;-68
2022/07/31 03:52:51;;;;;;;2.27;2.17;;;;;;;16.60;100.00;96602.66;5049967;27;104884;-68
2022/07/31 03:55:19;;;;;;;3.07;2.80;;;;;;;16.48;100.00;96604.91;5050720;27;104971;-68
2022/07/31 03:57:47;;;;;;;3.33;2.60;;;;;;;16.42;100.00;96599.84;5051025;27;101950;-68
2022/07/31 04:00:16;;;;;;;2.33;2.23;;;;;;;16.65;100.00;96601.78;5051383;27;104850;-68
2022/07/31 04:02:46;;;;;;;2.87;2.67;;;;;;;16.62;100.00;96599.69;5054009;27;105308;-68
2022/07/31 04:05:31;;;;;;;3.23;3.00;;;;;;;16.61;100.00;96598.06;5051116;27;104843;-68
2022/07/31 04:08:00;;;;;;;2.20;2.10;;;;;;;16.67;100.00;96605.00;5050230;27;106067;-68
2022/07/31 04:10:28;;;;;;;2.60;2.30;;;;;;;16.74;100.00;96605.47;5051218;27;101960;-68
2022/07/31 04:12:55;;;;;;;2.73;2.00;;;;;;;16.91;100.00;96614.69;5050871;27;104774;-68
2022/07/31 04:15:22;;;;;;;4.33;2.10;;;;;;;16.90;100.00;96610.38;5050342;27;104766;-68
2022/07/31 04:17:50;;;;;;;2.10;2.00;;;;;;;17.04;100.00;96613.19;5051038;27;101883;-68
2022/07/31 04:20:23;;;;;;;3.00;2.70;;;;;;;16.98;100.00;96603.59;5050794;27;103936;-68
2022/07/31 04:22:51;;;;;;;2.80;2.60;;;;;;;16.92;100.00;96604.75;5053832;27;105092;-68
2022/07/31 04:25:39;;;;;;;2.43;2.20;;;;;;;16.77;100.00;96602.19;5050855;27;104076;-68
2022/07/31 04:28:22;;;;;;;5.10;2.80;;;;;;;16.73;100.00;96609.25;5050372;27;105114;-68
2022/07/31 04:30:49;;;;;;;4.00;2.40;;;;;;;16.51;100.00;96615.06;5050724;27;101892;-68
2022/07/31 04:33:18;;;;;;;2.20;2.00;;;;;;;16.58;100.00;96610.16;5050693;27;105429;-68
2022/07/31 04:35:46;;;;;;;2.63;2.20;;;;;;;16.79;100.00;96614.25;5050010;27;105333;-68
2022/07/31 04:38:15;;;;;;;2.77;2.50;;;;;;;16.87;100.00;96612.84;5050817;27;102041;-68
2022/07/31 04:40:45;;;;;;;2.60;2.50;;;;;;;16.50;100.00;96623.41;5050148;27;103905;-68
2022/07/31 04:43:12;;;;;;;4.00;2.47;;;;;;;16.70;100.00;96617.84;5050897;27;102778;-68
2022/07/31 04:45:39;;;;;;;6.20;2.77;;;;;;;16.92;100.00;96623.53;5054035;27;101845;-68
2022/07/31 04:48:07;;;;;;;2.23;2.10;;;;;;;17.06;100.00;96617.22;5049848;27;104991;-68
2022/07/31 04:50:36;;;;;;;3.10;2.40;;;;;;;17.16;100.00;96627.84;5050199;27;101933;-68
2022/07/31 04:53:03;;;;;;;2.33;2.23;;;;;;;17.31;100.00;96619.63;5050502;27;105055;-68
2022/07/31 04:55:37;;;;;;;2.87;2.27;;;;;;;17.45;100.00;96635.88;5049729;27;105076;-67
2022/07/31 04:58:07;;;;;;;2.17;2.07;;;;;;;17.40;100.00;96628.69;5050276;27;101911;-68
2022/07/31 05:00:34;;;;;;;2.83;2.40;;;;;;;17.29;100.00;96621.81;5049976;27;104926;-68
2022/07/31 05:03:01;;;;;;;2.37;2.27;;;;;;;17.09;100.00;96626.59;5049071;27;105337;-68
2022/07/31 05:05:29;;;;;;;2.20;2.00;;;;;;;17.17;100.00;96620.59;5050349;27;101826;-68
2022/07/31 05:07:56;;;;;;;2.13;1.93;;;;;;;17.50;100.00;96628.53;5052773;27;105250;-68
2022/07/31 05:13:21;;;;;;;2.10;2.00;;;;;;;17.59;100.00;96621.44;5051367;27;102605;-68
2022/07/31 05:15:48;;;;;;;2.10;2.00;;;;;;;17.30;100.00;96627.97;5049456;27;105351;-68
2022/07/31 05:18:15;;;;;;;2.37;2.17;;;;;;;17.16;100.00;96627.84;5049390;27;102324;-68
2022/07/31 05:20:48;;;;;;;2.30;2.10;;;;;;;17.14;100.00;96624.66;5047699;27;102147;-67
2022/07/31 05:23:25;;;;;;;2.40;2.03;;;;;;;17.21;100.00;96621.59;5047310;27;105522;-68
2022/07/31 05:26:11;;;;;;;2.27;2.10;;;;;;;17.26;100.00;96618.88;5046734;27;102014;-68
2022/07/31 05:28:40;;;;;;;2.73;2.00;;;;;;;17.41;100.00;96619.53;5047063;27;104685;-67
2022/07/31 05:31:08;;;;;;;2.40;2.10;;;;;;;17.45;100.00;96630.50;5052769;27;105022;-68
2022/07/31 05:33:36;;;;;;;1.93;1.83;;;;;;;17.45;100.00;96625.91;5049692;27;105584;-68
2022/07/31 05:36:04;;;;;;;2.10;2.00;;;;;;;17.48;100.00;96619.97;5049220;27;105262;-68
2022/07/31 05:38:31;;;;;;;2.40;2.20;;;;;;;17.19;100.00;96626.47;5051372;27;102169;-68
2022/07/31 05:41:18;;;;;;;2.60;2.40;;;;;;;17.26;100.00;96627.75;5050937;27;103301;-68
2022/07/31 05:44:16;;;;;;;2.47;2.37;;;;;;;17.64;100.00;96628.66;5048797;27;105246;-74
2022/07/31 05:46:46;;;;;;;2.60;2.40;;;;;;;17.69;100.00;96633.97;5049781;27;102085;-75
2022/07/31 05:49:14;;;;;;;2.13;2.03;;;;;;;17.51;100.00;96626.66;5049680;27;104815;-75
2022/07/31 05:51:43;;;;;;;2.40;2.20;;;;;;;17.69;100.00;96623.19;5048805;27;105434;-75
2022/07/31 05:54:12;;;;;;;3.63;2.10;;;;;;;17.61;100.00;96629.25;5052894;27;102104;-75
2022/07/31 05:56:57;;;;;;;2.77;2.50;;;;;;;17.67;100.00;96626.19;5046972;27;102295;-75
2022/07/31 05:59:34;;;;;;;2.47;2.37;;;;;;;17.81;100.00;96618.19;5049360;27;101842;-75
2022/07/31 06:02:01;;;;;;;2.40;2.20;;;;;;;17.88;100.00;96629.41;5049405;27;104969;-75
2022/07/31 06:04:30;;;;;;;2.23;2.03;;;;;;;17.76;100.00;96623.66;5048727;27;103791;-75
2022/07/31 06:06:57;;;;;;;3.10;2.10;;;;;;;17.82;100.00;96630.56;5049216;27;101892;-75
2022/07/31 06:09:26;;;;;;;2.80;2.10;;;;;;;18.22;100.00;96625.41;5049421;27;104610;-75
2022/07/31 06:11:54;;;;;;;3.13;2.30;;;;;;;18.06;100.00;96628.59;5048515;27;105405;-75
2022/07/31 06:14:21;;;;;;;2.23;2.00;;;;;;;18.25;100.00;96621.34;5049238;27;101929;-75
2022/07/31 06:17:12;;;;;;;2.30;2.20;;;;;;;18.40;100.00;96631.88;5055273;27;104885;-75
2022/07/31 06:19:39;;;;;;;2.30;2.10;;;;;;;18.36;100.00;96637.06;5052887;27;102029;-75
2022/07/31 06:22:06;;;;;;;2.53;2.17;;;;;;;18.68;100.00;96636.25;5052490;27;105153;-75
2022/07/31 06:24:34;;;;;;;2.27;1.80;;;;;;;18.41;100.00;96636.97;5052293;27;105208;-75
2022/07/31 06:27:02;;;;;;;2.13;1.93;;;;;;;18.20;100.00;96635.66;5052690;27;101845;-75
2022/07/31 06:29:33;;;;;;;1.90;1.80;;;;;;;18.17;100.00;96640.81;5052586;27;104806;-75
2022/07/31 06:32:00;;;;;;;1.80;1.70;;;;;;;18.25;100.00;96634.81;5052083;27;105487;-75
2022/07/31 06:34:29;;;;;;;2.63;1.73;;;;;;;18.05;100.00;96641.25;5052415;27;101914;-75
2022/07/31 06:36:56;;;;;;;3.27;1.93;;;;;;;18.24;100.00;96642.06;5055460;27;105275;-75
2022/07/31 06:39:22;;;;;;;1.83;1.73;;;;;;;18.38;100.00;96634.88;5052576;27;101935;-75
2022/07/31 06:42:05;;;;;;;2.27;1.97;;;;;;;18.31;100.00;96630.94;5050722;27;102186;-75
2022/07/31 06:44:34;;;;;;;3.40;2.00;;;;;;;18.46;100.00;96636.09;5052675;27;102531;-75
2022/07/31 06:47:21;;;;;;;1.90;1.80;;;;;;;18.38;100.00;96628.69;5054264;27;102141;-75
2022/07/31 06:50:12;;;;;;;1.90;1.80;;;;;;;18.46;100.00;96628.00;5052425;27;104739;-75
2022/07/31 06:52:46;;;;;;;2.23;1.80;;;;;;;18.66;100.00;96619.59;5051383;27;103910;-75
2022/07/31 06:55:13;;;;;;;3.00;1.90;;;;;;;18.42;100.00;96617.03;5052212;27;101886;-75
2022/07/31 06:57:41;;;;;;;1.70;1.60;;;;;;;18.48;100.00;96631.22;5052318;27;105295;-75
2022/07/31 07:00:10;;;;;;;2.00;1.80;;;;;;;18.43;100.00;96626.69;5054815;27;104044;-75
2022/07/31 07:02:37;;;;;;;2.77;1.90;;;;;;;18.80;100.00;96628.53;5045323;27;104198;-68
2022/07/31 07:05:05;;;;;;;1.90;1.80;;;;;;;18.61;100.00;96625.06;5031214;28;105027;-76
2022/07/31 07:07:36;;;;;;;2.27;1.90;;;;;;;18.75;100.00;96623.22;5031492;28;101954;-76
2022/07/31 07:10:06;;;;;;;2.07;1.87;;;;;;;18.79;100.00;96629.59;5049232;27;105325;-76
2022/07/31 07:12:52;;;;;;;1.80;1.70;;;;;;;19.06;100.00;96629.66;5048668;27;102298;-76
2022/07/31 07:15:20;;;;;;;1.90;1.80;;;;;;;19.51;100.00;96634.22;5047261;27;101960;-76
2022/07/31 07:17:48;;;;;;;2.00;1.90;;;;;;;19.41;100.00;96631.72;5047293;27;104879;-76
2022/07/31 07:20:21;;;;;;;2.03;1.93;;;;;;;19.67;100.00;96630.91;5047919;27;105312;-76
2022/07/31 07:22:49;;;;;;;2.07;1.90;;;;;;;20.13;100.00;96625.34;5042829;27;102034;-76
2022/07/31 07:25:33;;;;;;;1.53;1.40;;;;;;;20.06;100.00;96619.53;5039192;27;105210;-76
2022/07/31 07:28:01;;;;;;;1.70;1.60;;;;;;;20.15;100.00;96626.63;5031302;27;101954;-76
2022/07/31 07:30:29;;;;;;;3.37;1.80;;;;;;;19.86;100.00;96617.28;5032591;27;104859;-75
2022/07/31 07:32:59;;;;;;;2.00;1.80;;;;;;;20.03;100.00;96625.53;5051105;27;105128;-76
2022/07/31 07:35:28;;;;;;;2.27;1.60;;;;;;;20.06;100.00;96625.72;5050015;27;101896;-76
2022/07/31 07:37:56;;;;;;;2.07;1.80;;;;;;;20.08;100.00;96622.75;5031301;28;105130;-76
2022/07/31 07:40:26;;;;;;;1.80;1.70;;;;;;;20.26;100.00;96622.59;5014008;27;105578;-76
2022/07/31 07:42:53;;;;;;;1.60;1.50;;;;;;;20.64;100.00;96617.63;5034560;27;101965;-76
2022/07/31 07:45:21;;;;;;;1.93;1.70;;;;;;;20.68;100.00;96615.91;5034555;27;105847;-76
2022/07/31 07:47:49;;;;;;;2.53;1.60;;;;;;;20.56;100.00;96618.38;5051623;27;102114;-76
2022/07/31 07:50:16;;;;;;;1.97;1.67;;;;;;;20.71;100.00;96616.09;5050895;27;105166;-76
2022/07/31 07:53:08;;;;;;;1.40;1.40;;;;;;;20.68;100.00;96608.59;5031448;27;103518;-76
2022/07/31 07:56:01;;;;;;;1.70;1.60;;;;;;;20.72;100.00;96606.06;5013995;27;101960;-68
2022/07/31 07:59:00;;;;;;;1.77;1.67;;;;;;;20.38;100.00;96608.56;5051950;27;103868;-71
2022/07/31 08:02:00;;;;;;;1.60;1.50;;;;;;;20.30;100.00;96604.69;5014616;27;102606;-73
2022/07/31 08:04:30;;;;;;;1.97;1.87;;;;;;;20.55;100.00;96604.06;5049773;27;102156;-68
2022/07/31 08:06:58;;;;;;;1.57;1.47;;;;;;;20.78;100.00;96607.53;5049677;27;104028;-74
2022/07/31 08:09:32;;;;;;;1.53;1.43;;;;;;;20.67;100.00;96606.22;5050386;27;103953;-70
2022/07/31 08:12:36;;;;;;;1.83;1.73;;;;;;;20.83;100.00;96596.59;5031227;27;103712;-70
2022/07/31 08:15:07;;;;;;;1.77;1.67;;;;;;;20.95;100.00;96607.66;5046833;27;103618;-67
2022/07/31 08:17:53;;;;;;;1.57;1.50;;;;;;;21.03;100.00;96601.53;5045958;27;101850;-74
2022/07/31 08:20:21;;;;;;;2.07;1.40;;;;;;;21.19;100.00;96605.41;5049511;27;105135;-67
2022/07/31 08:22:50;;;;;;;1.60;1.50;;;;;;;21.05;100.00;96605.50;5045305;27;105072;-67
2022/07/31 08:25:19;;;;;;;1.70;1.60;;;;;;;21.04;100.00;96608.53;5050405;27;101924;-67
2022/07/31 08:27:48;;;;;;;7.17;1.50;;;;;;;21.29;100.00;96602.41;5046444;27;105153;-74
2022/07/31 08:30:16;;;;;;;2.40;1.63;;;;;;;21.38;100.00;96605.94;5029527;28;105205;-72
2022/07/31 08:32:43;;;;;;;2.17;1.70;;;;;;;21.27;100.00;96612.75;5034841;27;101916;-71
2022/07/31 08:35:13;;;;;;;2.13;1.43;;;;;;;21.63;100.00;96613.38;5028132;27;102455;-69
2022/07/31 08:37:41;;;;;;;1.57;1.47;;;;;;;21.77;100.00;96612.16;5046987;27;102064;-69
2022/07/31 08:40:09;;;;;;;1.70;1.60;;;;;;;21.89;100.00;96606.09;5049649;27;104169;-69
2022/07/31 08:42:38;;;;;;;1.60;1.50;;;;;;;21.99;100.00;96605.78;5048773;27;105558;-70
2022/07/31 08:45:07;;;;;;;2.03;1.70;;;;;;;22.02;100.00;96613.31;5047287;27;102115;-75
2022/07/31 08:47:36;;;;;;;1.53;1.43;;;;;;;22.27;100.00;96605.19;5048489;27;105074;-75
2022/07/31 08:50:14;;;;;;;1.70;1.60;;;;;;;22.29;100.00;96604.88;5049508;27;105477;-75
2022/07/31 08:52:43;;;;;;;2.17;1.67;;;;;;;22.55;100.00;96597.56;5035554;27;102056;-75
2022/07/31 08:55:34;;;;;;;1.77;1.50;;;;;;;22.32;100.00;96601.50;5015777;27;103340;-75
2022/07/31 08:58:03;;;;;;;1.67;1.50;;;;;;;22.35;100.00;96609.00;5050365;27;101940;-75
2022/07/31 09:00:32;;;;;;;1.70;1.60;;;;;;;22.70;100.00;96597.84;5035912;27;102311;-75
2022/07/31 09:03:00;;;;;;;1.80;1.40;;;;;;;22.75;100.00;96596.88;5028694;27;105396;-76
2022/07/31 09:05:44;;;;;;;1.87;1.57;;;;;;;22.84;100.00;96597.66;5030009;28;101988;-75
2022/07/31 09:08:15;;;;;;;2.00;1.53;;;;;;;23.04;100.00;96596.97;5030815;27;105151;-75
2022/07/31 09:10:46;;;;;;;2.60;1.50;;;;;;;23.02;100.00;96593.75;5029472;28;105100;-75
2022/07/31 09:13:17;;;;;;;2.33;1.67;;;;;;;22.92;100.00;96591.41;5029529;27;101949;-75
2022/07/31 09:15:45;;;;;;;1.50;1.40;;;;;;;23.11;100.00;96591.84;5032455;28;104573;-75
2022/07/31 09:18:20;;;;;;;2.17;1.47;;;;;;;23.03;100.00;96587.22;5030665;27;102467;-75
2022/07/31 09:20:56;;;;;;;1.80;1.70;;;;;;;23.18;100.00;96594.88;5029844;28;104451;-75
2022/07/31 09:23:25;;;;;;;1.60;1.50;;;;;;;23.48;100.00;96589.13;5028773;27;105336;-75
2022/07/31 09:25:54;;;;;;;2.90;1.93;;;;;;;23.67;100.00;96586.00;5029751;28;102044;-75
2022/07/31 09:28:32;;;;;;;2.33;1.77;;;;;;;23.72;100.00;96591.25;5061614;27;105552;-67
2022/07/31 09:31:00;;;;;;;1.87;1.57;;;;;;;24.18;100.00;96593.81;5028393;28;105685;-75
2022/07/31 09:33:50;;;;;;;1.60;1.50;;;;;;;24.23;100.00;96591.72;5036638;27;103499;-75
2022/07/31 09:36:35;;;;;;;1.57;1.47;;;;;;;24.69;100.00;96587.97;5048120;27;102084;-74
2022/07/31 09:39:21;;;;;;;2.57;1.63;;;;;;;24.98;100.00;96588.63;5048503;27;102278;-74
2022/07/31 09:42:08;;;;;;;2.40;1.67;;;;;;;24.79;100.00;96593.00;5047465;27;101986;-75
2022/07/31 09:44:54;;;;;;;3.23;1.60;;;;;;;24.56;100.00;96586.31;5037909;27;103622;-74
2022/07/31 09:47:22;;;;;;;1.60;1.50;;;;;;;24.08;100.00;96588.81;5030602;27;101857;-75
2022/07/31 09:49:55;;;;;;;1.90;1.80;;;;;;;24.41;100.00;96597.81;5029183;28;104962;-74
2022/07/31 09:52:22;;;;;;;1.93;1.50;;;;;;;24.71;100.00;96586.53;5040008;27;104153;-75
2022/07/31 09:55:01;;;;;;;1.67;1.57;;;;;;;24.95;100.00;96585.81;5049311;27;101910;-75
2022/07/31 09:57:34;;;;;;;1.53;1.43;;;;;;;24.86;100.00;96579.66;5044093;27;104864;-75
2022/07/31 10:00:04;;;;;;;2.90;1.73;;;;;;;24.88;100.00;96577.38;5028359;28;105353;-74
2022/07/31 10:02:44;;;;;;;1.70;1.60;;;;;;;24.76;100.00;96580.06;5044542;27;101772;-75
2022/07/31 10:05:13;;;;;;;1.83;1.70;;;;;;;24.71;100.00;96583.00;5031091;27;105618;-74
2022/07/31 10:07:41;;;;;;;1.77;1.67;;;;;;;24.93;100.00;96579.88;5028515;27;103012;-74
2022/07/31 10:10:23;;;;;;;1.90;1.77;;;;;;;24.51;100.00;96578.34;5028787;27;105193;-75
2022/07/31 10:13:02;;;;;;;3.00;1.80;;;;;;;24.92;100.00;96570.13;5028160;28;104997;-75
2022/07/31 10:15:35;;;;;;;2.37;1.63;;;;;;;24.73;100.00;96572.59;5048012;27;102114;-74
2022/07/31 10:18:39;;;;;;;1.67;1.57;;;;;;;24.55;100.00;96562.97;5034275;27;103531;-75
2022/07/31 10:21:32;;;;;;;2.83;1.50;;;;;;;24.72;100.00;96563.63;5016909;27;102420;-75
2022/07/31 10:24:10;;;;;;;1.70;1.60;;;;;;;25.27;100.00;96555.00;5039617;27;101963;-75
2022/07/31 10:26:38;;;;;;;1.47;1.33;;;;;;;24.63;100.00;96560.19;5031524;27;105322;-75
2022/07/31 10:29:06;;;;;;;1.93;1.40;;;;;;;25.10;100.00;96545.09;5028674;27;101901;-74
2022/07/31 10:31:36;;;;;;;1.60;1.50;;;;;;;25.16;100.00;96553.81;5028450;27;104887;-75
2022/07/31 10:34:03;;;;;;;1.30;1.30;;;;;;;25.45;100.00;96553.66;5034482;27;105197;-75
2022/07/31 10:36:55;;;;;;;1.60;1.50;;;;;;;25.39;100.00;96560.47;5047379;27;101763;-75
2022/07/31 10:39:56;;;;;;;1.73;1.60;;;;;;;25.54;100.00;96552.41;5020032;27;102773;-74
2022/07/31 10:42:37;;;;;;;1.77;1.30;;;;;;;26.32;100.00;96550.91;5047859;27;105517;-74
2022/07/31 10:45:07;;;;;;;2.13;1.93;;;;;;;26.11;100.00;96553.00;5046713;27;102030;-75
2022/07/31 10:47:55;;;;;;;1.40;1.30;;;;;;;26.29;100.00;96545.34;5043322;27;105471;-74
2022/07/31 10:50:43;;;;;;;1.40;1.30;;;;;;;27.03;100.00;96540.00;5031924;28;103049;-75
2022/07/31 10:53:25;;;;;;;1.60;1.37;;;;;;;26.56;96.44;96533.69;5028629;27;105352;-74
2022/07/31 10:56:09;;;;;;;1.93;1.60;;;;;;;26.96;98.15;96539.81;5047730;27;105275;-74
2022/07/31 10:58:51;;;;;;;1.40;1.10;;;;;;;27.06;89.99;96531.09;5034165;27;103271;-74
2022/07/31 11:01:46;;;;;;;1.60;1.50;;;;;;;26.75;90.92;96536.53;5030982;27;103276;-74
2022/07/31 11:04:33;;;;;;;2.33;1.60;;;;;;;26.38;84.20;96532.38;5032922;28;102245;-74
2022/07/31 11:07:30;;;;;;;1.30;1.20;;;;;;;26.83;95.98;96530.13;5031598;28;101876;-75
2022/07/31 11:10:11;;;;;;;1.13;1.13;;;;;;;26.42;93.13;96530.53;5029851;27;102201;-75
2022/07/31 11:13:09;;;;;;;1.50;1.40;;;;;;;26.51;90.23;96522.97;5029969;27;102923;-74
2022/07/31 11:16:03;;;;;;;1.30;1.20;;;;;;;26.22;96.40;96528.78;5030138;28;101663;-74
2022/07/31 11:19:01;;;;;;;2.03;1.40;;;;;;;26.64;93.72;96525.34;5030784;27;104177;-75
2022/07/31 11:21:33;;;;;;;1.40;1.10;;;;;;;26.84;85.47;96528.97;5032577;27;101915;-74
2022/07/31 11:24:12;;;;;;;1.70;1.40;;;;;;;27.36;86.71;96519.41;5037601;27;104847;-75
2022/07/31 11:26:42;;;;;;;2.17;1.50;;;;;;;27.39;84.73;96521.44;5051422;27;101806;-74
2022/07/31 11:29:10;;;;;;;1.50;1.40;;;;;;;26.95;88.81;96517.19;5052655;27;101803;-75
2022/07/31 11:31:37;;;;;;;6.17;1.80;;;;;;;26.67;93.91;96516.47;5046454;27;104384;-75
2022/07/31 11:34:05;;;;;;;3.83;3.53;;;;;;;26.40;89.02;96513.72;5037170;27;105359;-74
2022/07/31 11:36:34;;;;;;;1.53;1.43;;;;;;;26.00;92.33;96515.69;5051636;27;101726;-75
2022/07/31 11:39:01;;;;;;;2.03;1.47;;;;;;;26.12;93.25;96513.72;5030042;28;105044;-75
2022/07/31 11:41:29;;;;;;;1.50;1.40;;;;;;;26.19;85.60;96518.56;5033714;27;101755;-75
2022/07/31 11:43:57;;;;;;;1.40;1.30;;;;;;;26.20;94.21;96520.19;5037199;27;102682;-75
2022/07/31 11:46:26;;;;;;;2.47;1.30;;;;;;;26.36;89.84;96519.06;5049205;27;104525;-75